createdAt,value
2017-02-28T00:00:28.082Z,53.20
2017-02-28T00:01:31.842Z,53.10
2017-02-28T00:02:29.000Z,53.20
2017-02-28T00:03:22.254Z,53.00
2017-02-28T00:04:27.200Z,53.10
2017-02-28T00:05:28.086Z,53.20
2017-02-28T00:06:27.955Z,53.10
2017-02-28T00:07:28.570Z,53.10
2017-02-28T00:08:27.333Z,53.00
2017-02-28T00:09:49.419Z,53.10
2017-02-28T00:10:26.015Z,53.10
2017-02-28T00:11:13.441Z,53.10
2017-02-28T00:12:23.165Z,53.10
2017-02-28T00:13:13.321Z,53.10
2017-02-28T00:14:11.786Z,is
2017-02-28T00:15:22.535Z,53.10
2017-02-28T00:16:23.047Z,53.20
2017-02-28T00:17:16.086Z,53.10
2017-02-28T00:18:20.807Z,53.20
2017-02-28T00:19:18.542Z,53.00
2017-02-28T00:20:23.559Z,53.00
2017-02-28T00:21:18.777Z,53.00
2017-02-28T00:22:16.084Z,53.10
2017-02-28T00:23:17.096Z,53.10
2017-02-28T00:24:16.803Z,53.00
2017-02-28T00:25:15.778Z,53.20
2017-02-28T00:26:13.400Z,53.10
2017-02-28T00:27:15.163Z,53.10
2017-02-28T00:28:21.717Z,53.10
2017-02-28T00:29:17.724Z,53.00
2017-02-28T00:30:15.983Z,53.20
2017-02-28T00:31:15.884Z,53.10
2017-02-28T00:32:24.793Z,53.10
2017-02-28T00:33:19.261Z,53.00
2017-02-28T00:34:23.972Z,53.00
2017-02-28T00:35:13.428Z,53.00
2017-02-28T00:36:17.212Z,53.10
2017-02-28T00:37:16.599Z,53.00
2017-02-28T00:38:25.508Z,53.10
2017-02-28T00:39:20.250Z,53.00
2017-02-28T00:40:17.798Z,53.20
2017-02-28T00:41:16.294Z,53.10
2017-02-28T00:42:18.647Z,53.00
2017-02-28T00:43:20.595Z,53.10
2017-02-28T00:44:16.190Z,53.00
2017-02-28T00:45:18.752Z,53.00
2017-02-28T00:46:23.770Z,53.10
2017-02-28T00:47:21.213Z,53.10
2017-02-28T00:48:15.886Z,53.00
2017-02-28T00:49:22.111Z,53.00
2017-02-28T00:50:18.445Z,53.00
2017-02-28T00:51:13.738Z,53.10
2017-02-28T00:52:22.029Z,53.00
2017-02-28T00:53:16.705Z,53.10
2017-02-28T00:54:21.825Z,53.10
2017-02-28T00:55:16.428Z,53.10
2017-02-28T00:56:18.856Z,is
2017-02-28T00:57:15.374Z,53.20
2017-02-28T00:58:13.842Z,53.10
2017-02-28T00:59:23.054Z,53.10
2017-02-28T01:00:13.432Z,53.10
2017-02-28T01:01:16.855Z,53.10
2017-02-28T01:02:26.956Z,53.00
2017-02-28T01:03:18.142Z,53.10
2017-02-28T01:04:17.208Z,is
2017-02-28T01:05:23.444Z,52.20
2017-02-28T01:06:26.743Z,53.10
2017-02-28T01:07:26.995Z,53.10
2017-02-28T01:08:28.322Z,53.00
2017-02-28T01:09:26.375Z,53.00
2017-02-28T01:10:28.894Z,53.10
2017-02-28T01:11:28.525Z,53.00
2017-02-28T01:12:27.882Z,53.00
2017-02-28T01:13:36.851Z,53.00
2017-02-28T01:14:32.595Z,is
2017-02-28T01:15:27.152Z,53.10
2017-02-28T01:16:30.275Z,53.10
2017-02-28T01:17:27.877Z,53.00
2017-02-28T01:18:28.894Z,53.00
2017-02-28T01:19:27.183Z,53.10
2017-02-28T01:20:44.705Z,53.00
2017-02-28T01:21:33.643Z,53.00
2017-02-28T01:22:31.732Z,53.10
2017-02-28T01:23:35.862Z,53.10
2017-02-28T01:24:26.298Z,53.00
2017-02-28T01:25:39.152Z,53.00
2017-02-28T01:26:28.195Z,53.00
2017-02-28T01:27:28.737Z,53.00
2017-02-28T01:28:32.030Z,53.10
2017-02-28T01:29:33.623Z,53.00
2017-02-28T01:30:29.151Z,53.00
2017-02-28T01:31:22.229Z,52.90
2017-02-28T01:32:27.562Z,is
2017-02-28T01:33:28.739Z,53.10
2017-02-28T01:34:37.060Z,53.00
2017-02-28T01:35:28.103Z,53.00
2017-02-28T01:36:29.225Z,53.00
2017-02-28T01:37:36.704Z,52.90
2017-02-28T01:38:28.246Z,53.10
2017-02-28T01:39:31.170Z,53.20
2017-02-28T01:40:32.453Z,53.00
2017-02-28T01:41:28.621Z,53.10
2017-02-28T01:42:26.136Z,53.00
2017-02-28T01:43:27.725Z,53.20
2017-02-28T01:44:22.552Z,53.10
2017-02-28T01:45:21.430Z,53.10
2017-02-28T01:46:26.596Z,53.10
2017-02-28T01:47:32.997Z,53.10
2017-02-28T01:48:17.843Z,53.10
2017-02-28T01:49:19.534Z,53.00
2017-02-28T01:50:21.838Z,53.00
2017-02-28T01:51:27.485Z,53.10
2017-02-28T01:52:24.704Z,53.10
2017-02-28T01:53:32.616Z,is
2017-02-28T01:54:27.527Z,53.10
2017-02-28T01:55:31.930Z,53.10
2017-02-28T01:56:28.330Z,53.10
2017-02-28T01:57:36.684Z,53.10
2017-02-28T01:58:37.752Z,53.00
2017-02-28T01:59:31.202Z,53.00
2017-02-28T02:00:36.101Z,53.00
2017-02-28T02:01:23.151Z,53.10
2017-02-28T02:02:29.441Z,53.10
2017-02-28T02:03:29.607Z,53.00
2017-02-28T02:04:26.467Z,53.20
2017-02-28T02:05:45.998Z,53.10
2017-02-28T02:06:29.752Z,53.00
2017-02-28T02:07:32.262Z,53.20
2017-02-28T02:08:27.858Z,53.10
2017-02-28T02:09:28.936Z,53.10
2017-02-28T02:10:23.340Z,53.10
2017-02-28T02:11:23.149Z,53.10
2017-02-28T02:12:30.230Z,53.10
2017-02-28T02:13:19.384Z,is
2017-02-28T02:14:27.473Z,53.20
2017-02-28T02:15:29.543Z,53.10
2017-02-28T02:16:22.684Z,53.10
2017-02-28T02:17:21.200Z,53.20
2017-02-28T02:18:22.508Z,53.10
2017-02-28T02:19:28.804Z,is
2017-02-28T02:20:26.340Z,53.20
2017-02-28T02:21:24.277Z,53.10
2017-02-28T02:22:21.657Z,53.20
2017-02-28T02:23:23.889Z,53.10
2017-02-28T02:24:14.674Z,53.10
2017-02-28T02:25:19.590Z,53.10
2017-02-28T02:26:15.987Z,53.20
2017-02-28T02:27:25.500Z,53.20
2017-02-28T02:28:22.560Z,53.20
2017-02-28T02:29:15.880Z,is
2017-02-28T02:30:27.373Z,53.20
2017-02-28T02:31:27.942Z,53.10
2017-02-28T02:32:26.977Z,53.10
2017-02-28T02:33:28.395Z,53.10
2017-02-28T02:34:27.479Z,53.20
2017-02-28T02:35:31.507Z,53.10
2017-02-28T02:36:32.307Z,53.00
2017-02-28T02:37:30.704Z,53.10
2017-02-28T02:38:33.617Z,53.10
2017-02-28T02:39:33.035Z,53.00
2017-02-28T02:40:31.971Z,53.10
2017-02-28T02:41:28.651Z,53.10
2017-02-28T02:42:30.016Z,53.20
2017-02-28T02:43:37.959Z,53.10
2017-02-28T02:44:31.450Z,53.10
2017-02-28T02:45:32.786Z,53.00
2017-02-28T02:46:28.272Z,53.10
2017-02-28T02:47:38.001Z,53.10
2017-02-28T02:48:31.615Z,53.20
2017-02-28T02:49:32.073Z,53.10
2017-02-28T02:50:32.125Z,53.00
2017-02-28T02:51:37.766Z,53.10
2017-02-28T02:52:28.723Z,53.20
2017-02-28T02:53:30.036Z,53.10
2017-02-28T02:54:30.790Z,53.10
2017-02-28T02:55:27.669Z,53.40
2017-02-28T02:56:27.321Z,53.10
2017-02-28T02:57:27.319Z,53.10
2017-02-28T02:58:28.218Z,53.10
2017-02-28T02:59:29.359Z,53.20
2017-02-28T03:00:26.526Z,53.20
2017-02-28T03:01:31.955Z,53.00
2017-02-28T03:02:25.902Z,53.20
2017-02-28T03:03:26.941Z,53.00
2017-02-28T03:04:26.969Z,53.10
2017-02-28T03:05:30.705Z,53.10
2017-02-28T03:06:27.894Z,53.10
2017-02-28T03:07:36.328Z,53.00
2017-02-28T03:08:32.674Z,53.10
2017-02-28T03:09:33.805Z,53.00
2017-02-28T03:10:38.127Z,53.20
2017-02-28T03:11:27.432Z,53.10
2017-02-28T03:12:33.597Z,53.20
2017-02-28T03:13:51.170Z,53.10
2017-02-28T03:14:31.547Z,is
2017-02-28T03:15:31.489Z,53.20
2017-02-28T03:16:30.626Z,53.10
2017-02-28T03:17:28.544Z,is
2017-02-28T03:18:25.140Z,53.20
2017-02-28T03:19:29.647Z,53.20
2017-02-28T03:20:37.907Z,53.00
2017-02-28T03:21:33.026Z,53.10
2017-02-28T03:22:30.854Z,53.10
2017-02-28T03:23:27.817Z,53.10
2017-02-28T03:24:36.728Z,53.20
2017-02-28T03:25:28.124Z,53.10
2017-02-28T03:26:31.393Z,53.10
2017-02-28T03:27:42.907Z,53.00
2017-02-28T03:28:28.369Z,53.10
2017-02-28T03:29:36.100Z,53.10
2017-02-28T03:30:33.381Z,53.10
2017-02-28T03:31:32.250Z,53.10
2017-02-28T03:32:32.918Z,52.90
2017-02-28T03:33:27.988Z,53.20
2017-02-28T03:34:27.492Z,53.00
2017-02-28T03:35:32.111Z,is
2017-02-28T03:36:32.071Z,53.10
2017-02-28T03:37:28.171Z,53.00
2017-02-28T03:38:27.190Z,53.20
2017-02-28T03:39:38.181Z,53.20
2017-02-28T03:40:28.059Z,53.10
2017-02-28T03:41:28.813Z,53.10
2017-02-28T03:42:26.127Z,53.10
2017-02-28T03:43:26.805Z,53.10
2017-02-28T03:44:26.119Z,53.10
2017-02-28T03:45:22.676Z,53.10
2017-02-28T03:46:27.078Z,53.10
2017-02-28T03:47:23.221Z,53.20
2017-02-28T03:48:22.728Z,53.20
2017-02-28T03:49:26.159Z,53.10
2017-02-28T03:50:28.189Z,53.10
2017-02-28T03:51:27.929Z,53.20
2017-02-28T03:52:31.119Z,53.10
2017-02-28T03:53:33.685Z,53.00
2017-02-28T03:54:33.676Z,53.10
2017-02-28T03:55:26.981Z,53.20
2017-02-28T03:56:20.045Z,53.20
2017-02-28T03:57:27.208Z,53.20
2017-02-28T03:58:33.436Z,53.10
2017-02-28T03:59:31.281Z,53.20
2017-02-28T04:00:24.451Z,53.00
2017-02-28T04:01:26.958Z,53.20
2017-02-28T04:02:29.059Z,53.20
2017-02-28T04:03:30.269Z,53.20
2017-02-28T04:04:36.373Z,53.00
2017-02-28T04:05:32.694Z,53.10
2017-02-28T04:06:29.727Z,53.30
2017-02-28T04:07:27.627Z,53.20
2017-02-28T04:08:44.971Z,53.20
2017-02-28T04:09:26.402Z,53.20
2017-02-28T04:10:28.689Z,53.10
2017-02-28T04:11:29.330Z,53.20
2017-02-28T04:12:30.539Z,53.00
2017-02-28T04:13:28.018Z,53.20
2017-02-28T04:14:35.151Z,53.20
2017-02-28T04:15:26.215Z,53.10
2017-02-28T04:16:25.651Z,53.00
2017-02-28T04:17:27.401Z,is
2017-02-28T04:18:28.509Z,53.00
2017-02-28T04:19:15.391Z,53.10
2017-02-28T04:20:13.674Z,53.00
2017-02-28T04:21:25.560Z,53.00
2017-02-28T04:22:22.989Z,53.00
2017-02-28T04:23:29.505Z,53.00
2017-02-28T04:24:19.443Z,53.10
2017-02-28T04:25:16.847Z,53.00
2017-02-28T04:26:25.449Z,is
2017-02-28T04:27:19.919Z,53.10
2017-02-28T04:28:27.213Z,53.10
2017-02-28T04:29:34.312Z,53.00
2017-02-28T04:30:31.464Z,53.10
2017-02-28T04:31:21.581Z,53.20
2017-02-28T04:32:33.255Z,53.10
2017-02-28T04:33:29.341Z,53.10
2017-02-28T04:34:23.897Z,53.20
2017-02-28T04:35:26.628Z,is
2017-02-28T04:36:25.187Z,53.10
2017-02-28T04:37:19.717Z,53.10
2017-02-28T04:38:15.109Z,53.00
2017-02-28T04:39:14.905Z,53.10
2017-02-28T04:40:17.566Z,53.00
2017-02-28T04:41:13.475Z,53.10
2017-02-28T04:42:12.862Z,is
2017-02-28T04:43:19.207Z,53.10
2017-02-28T04:44:18.799Z,53.10
2017-02-28T04:45:18.183Z,53.00
2017-02-28T04:46:17.465Z,53.10
2017-02-28T04:47:15.160Z,53.00
2017-02-28T04:48:16.750Z,53.30
2017-02-28T04:49:21.461Z,53.10
2017-02-28T04:50:22.336Z,53.00
2017-02-28T04:51:14.091Z,53.00
2017-02-28T04:52:16.033Z,53.10
2017-02-28T04:53:19.912Z,53.10
2017-02-28T04:54:23.305Z,53.10
2017-02-28T04:55:22.000Z,53.10
2017-02-28T04:56:26.243Z,53.00
2017-02-28T04:57:25.149Z,53.00
2017-02-28T04:58:24.023Z,53.20
2017-02-28T04:59:17.440Z,53.00
2017-02-28T05:00:22.080Z,53.00
2017-02-28T05:01:23.796Z,53.00
2017-02-28T05:02:22.245Z,53.00
2017-02-28T05:03:19.928Z,53.10
2017-02-28T05:04:15.202Z,53.00
2017-02-28T05:05:13.890Z,53.00
2017-02-28T05:06:12.457Z,is
2017-02-28T05:07:13.686Z,53.00
2017-02-28T05:08:21.567Z,53.00
2017-02-28T05:09:25.868Z,53.00
2017-02-28T05:10:20.339Z,53.10
2017-02-28T05:11:17.691Z,53.00
2017-02-28T05:12:27.817Z,53.00
2017-02-28T05:13:21.508Z,53.00
2017-02-28T05:14:20.360Z,53.10
2017-02-28T05:15:17.781Z,53.00
2017-02-28T05:16:16.347Z,53.10
2017-02-28T05:17:13.790Z,53.00
2017-02-28T05:18:15.224Z,53.10
2017-02-28T05:19:22.492Z,is
2017-02-28T05:20:30.684Z,53.00
2017-02-28T05:21:21.161Z,53.00
2017-02-28T05:22:20.956Z,53.00
2017-02-28T05:23:14.711Z,53.00
2017-02-28T05:24:16.144Z,53.10
2017-02-28T05:25:22.084Z,53.10
2017-02-28T05:26:15.121Z,53.10
2017-02-28T05:27:18.826Z,53.10
2017-02-28T05:28:20.856Z,53.00
2017-02-28T05:29:36.455Z,53.00
2017-02-28T05:30:22.670Z,is
2017-02-28T05:31:16.776Z,53.00
2017-02-28T05:32:18.807Z,53.00
2017-02-28T05:33:14.648Z,53.10
2017-02-28T05:34:19.321Z,53.10
2017-02-28T05:35:23.227Z,is
2017-02-28T05:36:18.910Z,53.00
2017-02-28T05:37:23.787Z,53.10
2017-02-28T05:38:21.779Z,53.10
2017-02-28T05:39:13.181Z,53.10
2017-02-28T05:40:17.686Z,53.10
2017-02-28T05:41:17.685Z,53.10
2017-02-28T05:42:20.047Z,53.00
2017-02-28T05:43:13.592Z,53.00
2017-02-28T05:44:22.396Z,53.20
2017-02-28T05:45:27.883Z,53.00
2017-02-28T05:46:22.344Z,53.00
2017-02-28T05:47:17.276Z,53.10
2017-02-28T05:48:17.379Z,53.10
2017-02-28T05:49:25.822Z,53.20
2017-02-28T05:50:16.354Z,53.20
2017-02-28T05:51:16.048Z,53.10
2017-02-28T05:52:17.891Z,is
2017-02-28T05:53:19.530Z,53.10
2017-02-28T05:54:14.452Z,53.10
2017-02-28T05:55:16.561Z,53.10
2017-02-28T05:56:19.704Z,53.20
2017-02-28T05:57:14.922Z,53.10
2017-02-28T05:58:14.005Z,53.20
2017-02-28T05:59:13.902Z,53.10
2017-02-28T06:00:19.021Z,53.20
2017-02-28T06:01:16.906Z,53.20
2017-02-28T06:02:17.030Z,53.10
2017-02-28T06:03:12.367Z,is
2017-02-28T06:04:20.966Z,53.10
2017-02-28T06:05:13.391Z,53.20
2017-02-28T06:06:18.713Z,53.20
2017-02-28T06:07:18.406Z,53.30
2017-02-28T06:08:21.713Z,53.20
2017-02-28T06:09:17.485Z,53.20
2017-02-28T06:10:17.383Z,53.10
2017-02-28T06:11:19.004Z,53.10
2017-02-28T06:12:17.996Z,53.10
2017-02-28T06:13:18.612Z,53.10
2017-02-28T06:14:22.923Z,53.20
2017-02-28T06:15:22.803Z,53.10
2017-02-28T06:16:24.555Z,53.20
2017-02-28T06:17:21.788Z,is
2017-02-28T06:18:23.632Z,53.20
2017-02-28T06:19:15.849Z,53.20
2017-02-28T06:20:21.892Z,53.10
2017-02-28T06:21:28.897Z,53.10
2017-02-28T06:22:27.739Z,53.10
2017-02-28T06:23:36.692Z,53.40
2017-02-28T06:24:18.307Z,53.20
2017-02-28T06:25:26.500Z,53.20
2017-02-28T06:26:20.766Z,53.20
2017-02-28T06:27:18.029Z,53.10
2017-02-28T06:28:17.285Z,53.10
2017-02-28T06:29:15.135Z,53.20
2017-02-28T06:30:13.192Z,53.10
2017-02-28T06:31:11.349Z,is
2017-02-28T06:32:15.499Z,53.30
2017-02-28T06:33:19.867Z,53.30
2017-02-28T06:34:16.160Z,53.30
2017-02-28T06:35:20.460Z,53.40
2017-02-28T06:36:20.626Z,53.40
2017-02-28T06:37:13.808Z,53.40
2017-02-28T06:38:16.936Z,53.40
2017-02-28T06:39:21.178Z,53.40
2017-02-28T06:40:21.603Z,53.40
2017-02-28T06:41:15.869Z,is
2017-02-28T06:42:14.187Z,is
2017-02-28T06:43:22.389Z,53.40
2017-02-28T06:44:14.648Z,53.40
2017-02-28T06:45:15.869Z,53.40
2017-02-28T06:46:17.597Z,53.40
2017-02-28T06:47:20.258Z,53.40
2017-02-28T06:48:16.777Z,53.30
2017-02-28T06:49:16.387Z,53.50
2017-02-28T06:50:16.327Z,53.50
2017-02-28T06:51:20.260Z,53.60
2017-02-28T06:52:22.683Z,53.60
2017-02-28T06:53:18.266Z,is
2017-02-28T06:54:20.837Z,53.80
2017-02-28T06:55:21.079Z,53.80
2017-02-28T06:56:26.281Z,54.70
2017-02-28T06:57:14.324Z,54.20
2017-02-28T06:58:17.655Z,55.80
2017-02-28T06:59:15.377Z,55.20
2017-02-28T07:00:16.402Z,55.50
2017-02-28T07:01:19.993Z,55.90
2017-02-28T07:02:12.531Z,is
2017-02-28T07:03:17.888Z,55.90
2017-02-28T07:04:18.828Z,55.80
2017-02-28T07:05:17.064Z,55.80
2017-02-28T07:06:21.080Z,55.70
2017-02-28T07:07:15.494Z,is
2017-02-28T07:08:19.223Z,55.10
2017-02-28T07:09:16.545Z,54.30
2017-02-28T07:10:19.447Z,54.50
2017-02-28T07:11:25.100Z,53.30
2017-02-28T07:12:23.508Z,53.20
2017-02-28T07:13:23.584Z,51.60
2017-02-28T07:14:19.444Z,54.00
2017-02-28T07:15:18.193Z,53.20
2017-02-28T07:16:20.878Z,54.20
2017-02-28T07:17:15.042Z,53.00
2017-02-28T07:18:30.300Z,53.70
2017-02-28T07:19:16.270Z,53.50
2017-02-28T07:20:17.909Z,is
2017-02-28T07:21:15.556Z,52.20
2017-02-28T07:22:19.457Z,52.00
2017-02-28T07:23:31.010Z,51.10
2017-02-28T07:24:29.029Z,50.00
2017-02-28T07:25:44.453Z,51.20
2017-02-28T07:26:37.650Z,50.60
2017-02-28T07:27:27.676Z,50.00
2017-02-28T07:28:30.361Z,50.30
2017-02-28T07:29:27.772Z,49.70
2017-02-28T07:30:21.194Z,49.80
2017-02-28T07:31:31.998Z,49.80
2017-02-28T07:32:34.576Z,49.40
2017-02-28T07:33:25.923Z,49.80
2017-02-28T07:34:30.197Z,50.20
2017-02-28T07:35:33.983Z,48.50
2017-02-28T07:36:36.996Z,48.50
2017-02-28T07:37:25.491Z,48.50
2017-02-28T07:38:23.070Z,50.00
2017-02-28T07:39:20.044Z,50.30
2017-02-28T07:40:18.321Z,50.70
2017-02-28T07:41:28.971Z,50.50
2017-02-28T07:42:18.528Z,50.30
2017-02-28T07:43:23.624Z,50.40
2017-02-28T07:44:25.006Z,50.30
2017-02-28T07:45:36.266Z,50.20
2017-02-28T07:46:28.796Z,49.90
2017-02-28T07:47:27.546Z,49.10
2017-02-28T07:48:27.033Z,47.70
2017-02-28T07:49:32.005Z,48.70
2017-02-28T07:50:29.268Z,48.00
2017-02-28T07:51:26.678Z,48.50
2017-02-28T07:52:41.105Z,49.00
2017-02-28T07:53:36.662Z,49.30
2017-02-28T07:54:23.656Z,49.20
2017-02-28T07:55:50.829Z,49.50
2017-02-28T07:56:28.898Z,49.50
2017-02-28T07:57:30.894Z,is
2017-02-28T07:58:47.716Z,49.60
2017-02-28T07:59:26.680Z,49.40
2017-02-28T08:00:33.544Z,49.80
2017-02-28T08:01:29.032Z,49.80
2017-02-28T08:02:27.573Z,is
2017-02-28T08:03:29.138Z,is
2017-02-28T08:04:32.036Z,50.00
2017-02-28T08:05:29.490Z,49.40
2017-02-28T08:06:35.037Z,50.10
2017-02-28T08:07:28.577Z,50.00
2017-02-28T08:08:27.532Z,50.00
2017-02-28T08:09:37.036Z,is
2017-02-28T08:10:23.239Z,50.00
2017-02-28T08:11:33.818Z,50.20
2017-02-28T08:12:28.497Z,50.10
2017-02-28T08:13:29.046Z,50.00
2017-02-28T08:14:20.735Z,is
2017-02-28T08:15:26.831Z,50.00
2017-02-28T08:16:31.787Z,49.70
2017-02-28T08:17:29.420Z,49.90
2017-02-28T08:18:30.878Z,49.90
2017-02-28T08:19:24.002Z,50.00
2017-02-28T08:20:37.407Z,50.00
2017-02-28T08:21:33.886Z,50.00
2017-02-28T08:22:34.670Z,50.00
2017-02-28T08:23:32.721Z,is
2017-02-28T08:24:27.986Z,50.00
2017-02-28T08:25:28.353Z,is
2017-02-28T08:26:30.757Z,50.10
2017-02-28T08:27:29.538Z,50.10
2017-02-28T08:28:26.732Z,50.10
2017-02-28T08:29:31.269Z,49.90
2017-02-28T08:30:27.796Z,49.70
2017-02-28T08:31:28.212Z,49.90
2017-02-28T08:32:42.798Z,50.10
2017-02-28T08:33:37.826Z,50.00
2017-02-28T08:34:33.695Z,50.00
2017-02-28T08:35:42.920Z,is
2017-02-28T08:36:29.759Z,50.00
2017-02-28T08:37:33.819Z,50.00
2017-02-28T08:38:27.842Z,50.10
2017-02-28T08:39:44.519Z,50.00
2017-02-28T08:40:39.086Z,50.00
2017-02-28T08:41:33.819Z,50.10
2017-02-28T08:42:32.726Z,50.00
2017-02-28T08:43:28.138Z,50.10
2017-02-28T08:44:33.420Z,50.00
2017-02-28T08:45:27.151Z,50.10
2017-02-28T08:46:34.894Z,50.00
2017-02-28T08:47:45.297Z,50.10
2017-02-28T08:48:46.210Z,50.00
2017-02-28T08:49:28.606Z,50.10
2017-02-28T08:50:33.628Z,50.00
2017-02-28T08:51:28.834Z,50.00
2017-02-28T08:52:36.150Z,50.10
2017-02-28T08:53:28.665Z,50.10
2017-02-28T08:54:26.258Z,is
2017-02-28T08:55:33.920Z,50.00
2017-02-28T08:56:33.960Z,50.10
2017-02-28T08:57:45.110Z,50.00
2017-02-28T08:58:34.660Z,50.00
2017-02-28T08:59:32.232Z,50.10
2017-02-28T09:00:35.580Z,50.00
2017-02-28T09:01:36.959Z,50.00
2017-02-28T09:02:32.162Z,50.10
2017-02-28T09:03:30.740Z,50.10
2017-02-28T09:04:32.084Z,50.10
2017-02-28T09:05:28.805Z,50.10
2017-02-28T09:06:33.599Z,50.10
2017-02-28T09:07:28.662Z,50.20
2017-02-28T09:08:26.990Z,50.30
2017-02-28T09:09:34.845Z,50.20
2017-02-28T09:10:29.149Z,50.20
2017-02-28T09:11:29.660Z,50.30
2017-02-28T09:12:39.453Z,50.40
2017-02-28T09:13:30.432Z,50.30
2017-02-28T09:14:46.425Z,50.30
2017-02-28T09:15:35.874Z,50.50
2017-02-28T09:16:33.585Z,50.40
2017-02-28T09:17:29.482Z,50.30
2017-02-28T09:18:34.150Z,50.40
2017-02-28T09:19:32.048Z,is
2017-02-28T09:20:28.682Z,50.80
2017-02-28T09:21:35.502Z,50.50
2017-02-28T09:22:27.314Z,50.50
2017-02-28T09:23:29.582Z,50.50
2017-02-28T09:24:33.721Z,50.50
2017-02-28T09:25:29.482Z,50.50
2017-02-28T09:26:31.090Z,50.50
2017-02-28T09:27:32.303Z,is
2017-02-28T09:28:33.575Z,50.50
2017-02-28T09:29:38.978Z,50.70
2017-02-28T09:30:33.233Z,50.60
2017-02-28T09:31:33.039Z,50.60
2017-02-28T09:32:34.744Z,50.80
2017-02-28T09:33:30.249Z,50.70
2017-02-28T09:34:35.289Z,49.90
2017-02-28T09:35:30.350Z,50.60
2017-02-28T09:36:39.468Z,50.70
2017-02-28T09:37:30.312Z,50.80
2017-02-28T09:38:32.167Z,50.70
2017-02-28T09:39:28.267Z,50.80
2017-02-28T09:40:36.688Z,is
2017-02-28T09:41:36.307Z,50.70
2017-02-28T09:42:35.609Z,50.70
2017-02-28T09:43:26.180Z,50.80
2017-02-28T09:44:31.126Z,50.70
2017-02-28T09:45:38.351Z,50.80
2017-02-28T09:46:27.574Z,50.70
2017-02-28T09:47:32.931Z,50.90
2017-02-28T09:48:29.945Z,50.80
2017-02-28T09:49:26.113Z,50.90
2017-02-28T09:50:42.534Z,50.80
2017-02-28T09:51:32.715Z,50.80
2017-02-28T09:52:26.290Z,50.90
2017-02-28T09:53:32.009Z,50.80
2017-02-28T09:54:31.151Z,50.80
2017-02-28T09:55:32.081Z,is
2017-02-28T09:56:31.006Z,50.90
2017-02-28T09:57:38.843Z,50.90
2017-02-28T09:58:23.597Z,50.90
2017-02-28T09:59:36.325Z,50.90
2017-02-28T10:00:29.532Z,50.90
2017-02-28T10:01:41.111Z,51.00
2017-02-28T10:02:42.428Z,50.90
2017-02-28T10:03:27.854Z,51.00
2017-02-28T10:04:27.983Z,51.00
2017-02-28T10:05:34.166Z,50.90
2017-02-28T10:06:26.200Z,51.00
2017-02-28T10:07:36.294Z,51.00
2017-02-28T10:08:29.928Z,51.30
2017-02-28T10:09:33.173Z,51.00
2017-02-28T10:10:22.240Z,51.10
2017-02-28T10:11:42.012Z,51.00
2017-02-28T10:12:36.851Z,50.90
2017-02-28T10:13:31.886Z,51.00
2017-02-28T10:14:33.790Z,51.10
2017-02-28T10:15:32.699Z,51.00
2017-02-28T10:16:26.177Z,51.00
2017-02-28T10:17:38.269Z,51.10
2017-02-28T10:18:36.390Z,51.00
2017-02-28T10:19:27.920Z,51.10
2017-02-28T10:20:34.790Z,51.00
2017-02-28T10:21:33.951Z,51.20
2017-02-28T10:22:40.171Z,51.00
2017-02-28T10:23:42.186Z,51.10
2017-02-28T10:24:41.173Z,51.00
2017-02-28T10:25:42.936Z,51.00
2017-02-28T10:26:28.171Z,51.10
2017-02-28T10:27:26.363Z,51.00
2017-02-28T10:28:33.592Z,51.10
2017-02-28T10:29:28.206Z,51.00
2017-02-28T10:30:21.485Z,51.10
2017-02-28T10:31:21.064Z,51.10
2017-02-28T10:32:33.987Z,51.20
2017-02-28T10:33:35.743Z,51.10
2017-02-28T10:34:36.410Z,51.10
2017-02-28T10:35:32.943Z,50.80
2017-02-28T10:36:27.907Z,51.10
2017-02-28T10:37:29.094Z,51.30
2017-02-28T10:38:26.633Z,51.20
2017-02-28T10:39:28.057Z,51.20
2017-02-28T10:40:46.658Z,is
2017-02-28T10:41:31.204Z,51.10
2017-02-28T10:42:26.930Z,51.20
2017-02-28T10:43:30.162Z,51.10
2017-02-28T10:44:28.499Z,51.20
2017-02-28T10:45:34.887Z,51.20
2017-02-28T10:46:39.180Z,51.20
2017-02-28T10:47:38.530Z,51.20
2017-02-28T10:48:34.536Z,51.20
2017-02-28T10:49:21.885Z,51.20
2017-02-28T10:50:33.121Z,51.30
2017-02-28T10:51:27.331Z,51.10
2017-02-28T10:52:28.514Z,51.20
2017-02-28T10:53:36.459Z,51.30
2017-02-28T10:54:40.999Z,51.40
2017-02-28T10:55:35.597Z,51.30
2017-02-28T10:56:35.955Z,51.30
2017-02-28T10:57:28.459Z,51.40
2017-02-28T10:58:29.048Z,51.30
2017-02-28T10:59:32.032Z,51.30
2017-02-28T11:00:26.984Z,51.30
2017-02-28T11:01:27.127Z,is
2017-02-28T11:02:35.099Z,51.20
2017-02-28T11:03:26.398Z,51.50
2017-02-28T11:04:33.725Z,51.30
2017-02-28T11:05:30.386Z,51.20
2017-02-28T11:06:41.164Z,51.40
2017-02-28T11:07:32.066Z,51.40
2017-02-28T11:08:33.857Z,51.30
2017-02-28T11:09:42.321Z,51.30
2017-02-28T11:10:31.175Z,51.30
2017-02-28T11:11:27.253Z,51.40
2017-02-28T11:12:26.927Z,51.30
2017-02-28T11:13:31.729Z,51.30
2017-02-28T11:14:29.555Z,51.40
2017-02-28T11:15:37.576Z,51.40
2017-02-28T11:16:34.036Z,51.40
2017-02-28T11:17:29.194Z,51.30
2017-02-28T11:18:40.566Z,51.50
2017-02-28T11:19:27.434Z,51.40
2017-02-28T11:20:32.000Z,51.40
2017-02-28T11:21:37.677Z,51.40
2017-02-28T11:22:37.778Z,51.40
2017-02-28T11:23:39.951Z,51.30
2017-02-28T11:24:22.484Z,51.40
2017-02-28T11:25:46.575Z,51.40
2017-02-28T11:26:22.472Z,51.50
2017-02-28T11:27:36.248Z,51.40
2017-02-28T11:28:33.170Z,51.50
2017-02-28T11:29:35.766Z,51.40
2017-02-28T11:30:31.232Z,51.40
2017-02-28T11:31:33.105Z,51.40
2017-02-28T11:32:29.450Z,51.40
2017-02-28T11:33:39.329Z,51.40
2017-02-28T11:34:23.314Z,is
2017-02-28T11:35:27.845Z,51.50
2017-02-28T11:36:28.437Z,is
2017-02-28T11:37:34.063Z,51.40
2017-02-28T11:38:27.825Z,51.50
2017-02-28T11:39:28.201Z,51.50
2017-02-28T11:40:31.197Z,51.50
2017-02-28T11:41:40.659Z,51.50
2017-02-28T11:42:30.664Z,51.50
2017-02-28T11:43:33.518Z,51.40
2017-02-28T11:44:28.280Z,51.40
2017-02-28T11:45:32.063Z,51.40
2017-02-28T11:46:30.348Z,51.50
2017-02-28T11:47:40.583Z,51.40
2017-02-28T11:48:23.484Z,51.50
2017-02-28T11:49:36.848Z,51.50
2017-02-28T11:51:25.724Z,51.50
2017-02-28T11:51:46.305Z,51.50
2017-02-28T11:52:40.055Z,51.50
2017-02-28T11:53:43.670Z,51.40
2017-02-28T11:54:38.423Z,51.50
2017-02-28T11:55:36.329Z,51.50
2017-02-28T11:56:34.180Z,51.50
2017-02-28T11:57:33.460Z,51.50
2017-02-28T11:58:36.605Z,51.50
2017-02-28T11:59:36.561Z,51.60
2017-02-28T12:00:35.350Z,51.50
2017-02-28T12:01:36.243Z,51.50
2017-02-28T12:02:33.256Z,51.50
2017-02-28T12:03:36.603Z,51.60
2017-02-28T12:04:42.974Z,51.50
2017-02-28T12:05:28.396Z,51.50
2017-02-28T12:06:32.331Z,51.50
2017-02-28T12:07:40.293Z,51.50
2017-02-28T12:08:28.945Z,51.50
2017-02-28T12:09:37.182Z,is
2017-02-28T12:10:46.322Z,51.50
2017-02-28T12:11:26.349Z,51.60
2017-02-28T12:12:36.986Z,51.50
2017-02-28T12:13:38.081Z,51.50
2017-02-28T12:14:47.068Z,51.60
2017-02-28T12:15:47.781Z,51.60
2017-02-28T12:16:36.443Z,51.50
2017-02-28T12:17:49.729Z,51.50
2017-02-28T12:18:36.811Z,51.50
2017-02-28T12:19:30.918Z,51.50
2017-02-28T12:20:49.969Z,51.50
2017-02-28T12:21:37.140Z,51.50
2017-02-28T12:23:40.163Z,51.60
2017-02-28T12:24:38.766Z,51.50
2017-02-28T12:25:47.295Z,51.50
2017-02-28T12:26:41.919Z,51.50
2017-02-28T12:27:49.968Z,51.50
2017-02-28T12:28:33.422Z,51.50
2017-02-28T12:29:38.568Z,51.50
2017-02-28T12:30:37.197Z,51.60
2017-02-28T12:31:35.162Z,51.60
2017-02-28T12:32:50.026Z,51.50
2017-02-28T12:33:38.796Z,is
2017-02-28T12:34:31.017Z,51.50
2017-02-28T12:35:31.214Z,51.50
2017-02-28T12:36:46.383Z,51.50
2017-02-28T12:37:33.147Z,51.60
2017-02-28T12:38:30.733Z,51.60
2017-02-28T12:39:29.869Z,51.50
2017-02-28T12:40:32.472Z,51.60
2017-02-28T12:41:44.013Z,51.50
2017-02-28T12:42:33.587Z,51.60
2017-02-28T12:43:38.946Z,51.60
2017-02-28T12:44:27.174Z,51.70
2017-02-28T12:45:34.705Z,51.70
2017-02-28T12:46:36.203Z,51.60
2017-02-28T12:47:36.672Z,51.50
2017-02-28T12:48:30.335Z,51.60
2017-02-28T12:49:38.214Z,51.50
2017-02-28T12:50:33.559Z,51.50
2017-02-28T12:51:34.122Z,51.70
2017-02-28T12:52:28.625Z,51.60
2017-02-28T12:53:35.939Z,51.60
2017-02-28T12:54:22.891Z,51.60
2017-02-28T12:55:33.956Z,51.50
2017-02-28T12:56:34.770Z,51.60
2017-02-28T12:57:36.395Z,51.60
2017-02-28T12:58:35.457Z,51.60